createdAt,value
2023-05-13T00:00:37.241Z,0.00
2023-05-13T00:01:37.258Z,0.00
2023-05-13T00:02:37.305Z,0.00
2023-05-13T00:03:37.341Z,0.00
2023-05-13T00:04:37.232Z,0.00
2023-05-13T00:05:37.278Z,0.00
2023-05-13T00:06:37.302Z,0.00
2023-05-13T00:07:37.188Z,0.00
2023-05-13T00:08:44.815Z,0.00
2023-05-13T00:09:37.147Z,0.00
2023-05-13T00:10:37.199Z,0.00
2023-05-13T00:11:37.137Z,0.00
2023-05-13T00:12:37.138Z,0.00
2023-05-13T00:13:37.141Z,0.00
2023-05-13T00:14:37.101Z,0.00
2023-05-13T00:15:37.108Z,0.00
2023-05-13T00:16:37.137Z,0.00
2023-05-13T00:17:38.092Z,0.00
2023-05-13T00:18:37.105Z,0.00
2023-05-13T00:19:37.073Z,0.00
2023-05-13T00:20:37.030Z,0.00
2023-05-13T00:21:37.045Z,0.00
2023-05-13T00:22:37.014Z,0.00
2023-05-13T00:23:37.023Z,0.00
2023-05-13T00:24:36.997Z,0.00
2023-05-13T00:25:37.005Z,0.00
2023-05-13T00:26:36.965Z,0.00
2023-05-13T00:27:36.952Z,0.00
2023-05-13T00:28:36.996Z,0.00
2023-05-13T00:29:36.964Z,0.00
2023-05-13T00:30:36.942Z,0.00
2023-05-13T00:31:37.007Z,0.00
2023-05-13T00:32:36.952Z,0.00
2023-05-13T00:33:36.900Z,0.00
2023-05-13T00:34:36.914Z,0.00
2023-05-13T00:35:37.215Z,0.00
2023-05-13T00:36:36.867Z,0.00
2023-05-13T00:37:36.883Z,0.00
2023-05-13T00:38:36.846Z,0.00
2023-05-13T00:39:36.823Z,0.00
2023-05-13T00:40:36.824Z,0.00
2023-05-13T00:41:36.829Z,0.00
2023-05-13T00:42:36.818Z,0.00
2023-05-13T00:43:36.779Z,0.00
2023-05-13T00:44:36.782Z,0.00
2023-05-13T00:45:36.764Z,0.00
2023-05-13T00:46:36.765Z,0.00
2023-05-13T00:47:36.815Z,0.00
2023-05-13T00:48:36.786Z,0.00
2023-05-13T00:49:36.727Z,0.00
2023-05-13T00:50:36.715Z,0.00
2023-05-13T00:51:36.699Z,0.00
2023-05-13T00:52:36.694Z,0.00
2023-05-13T00:53:36.744Z,0.00
2023-05-13T00:54:36.739Z,0.00
2023-05-13T00:55:36.654Z,0.00
2023-05-13T00:56:36.638Z,0.00
2023-05-13T00:57:36.634Z,0.00
2023-05-13T00:58:36.636Z,0.00
2023-05-13T00:59:36.635Z,0.00
2023-05-13T01:00:36.629Z,0.00
2023-05-13T01:01:36.777Z,0.00
2023-05-13T01:02:36.658Z,0.00
2023-05-13T01:03:36.622Z,0.00
2023-05-13T01:04:36.570Z,0.00
2023-05-13T01:05:36.563Z,0.00
2023-05-13T01:06:36.537Z,0.00
2023-05-13T01:07:36.547Z,0.00
2023-05-13T01:08:36.509Z,0.00
2023-05-13T01:09:36.503Z,0.00
2023-05-13T01:10:36.488Z,0.00
2023-05-13T01:11:36.494Z,0.00
2023-05-13T01:12:36.488Z,0.00
2023-05-13T01:13:36.446Z,0.00
2023-05-13T01:14:36.446Z,0.00
2023-05-13T01:15:36.431Z,0.00
2023-05-13T01:16:36.443Z,0.00
2023-05-13T01:17:36.478Z,0.00
2023-05-13T01:18:36.489Z,0.00
2023-05-13T01:19:36.400Z,0.00
2023-05-13T01:20:36.376Z,0.00
2023-05-13T01:21:36.380Z,0.00
2023-05-13T01:22:36.387Z,0.00
2023-05-13T01:23:36.346Z,0.00
2023-05-13T01:24:36.395Z,0.00
2023-05-13T01:25:36.319Z,0.00
2023-05-13T01:26:36.301Z,0.00
2023-05-13T01:27:36.314Z,0.00
2023-05-13T01:28:36.313Z,0.00
2023-05-13T01:29:36.307Z,0.00
2023-05-13T01:30:36.264Z,0.00
2023-05-13T01:31:36.336Z,0.00
2023-05-13T01:32:36.250Z,0.00
2023-05-13T01:33:36.246Z,0.00
2023-05-13T01:34:36.227Z,0.00
2023-05-13T01:35:36.244Z,0.00
2023-05-13T01:36:36.192Z,0.00
2023-05-13T01:37:36.202Z,0.00
2023-05-13T01:38:36.184Z,0.00
2023-05-13T01:39:36.162Z,0.00
2023-05-13T01:40:36.375Z,0.00
2023-05-13T01:41:36.159Z,0.00
2023-05-13T01:42:36.172Z,0.00
2023-05-13T01:43:36.116Z,0.00
2023-05-13T01:44:36.112Z,0.00
2023-05-13T01:45:36.106Z,0.00
2023-05-13T01:46:36.145Z,0.00
2023-05-13T01:47:36.145Z,0.00
2023-05-13T01:48:36.116Z,0.00
2023-05-13T01:49:36.061Z,0.00
2023-05-13T01:50:36.061Z,0.00
2023-05-13T01:51:36.056Z,0.00
2023-05-13T01:52:36.041Z,0.00
2023-05-13T01:53:36.011Z,0.00
2023-05-13T01:54:36.019Z,0.00
2023-05-13T01:55:35.986Z,0.00
2023-05-13T01:56:35.996Z,0.00
2023-05-13T01:57:35.965Z,0.00
2023-05-13T01:58:35.964Z,0.00
2023-05-13T01:59:35.985Z,0.00
2023-05-13T02:00:35.934Z,0.00
2023-05-13T02:01:35.952Z,0.00
2023-05-13T02:02:36.013Z,0.00
2023-05-13T02:03:35.984Z,0.00
2023-05-13T02:04:35.912Z,0.00
2023-05-13T02:05:35.905Z,0.00
2023-05-13T02:06:35.902Z,0.00
2023-05-13T02:07:35.881Z,0.00
2023-05-13T02:08:35.840Z,0.00
2023-05-13T02:09:35.855Z,0.00
2023-05-13T02:10:35.860Z,0.00
2023-05-13T02:11:35.823Z,0.00
2023-05-13T02:12:35.803Z,0.00
2023-05-13T02:13:35.865Z,0.00
2023-05-13T02:14:35.776Z,0.00
2023-05-13T02:15:35.776Z,0.00
2023-05-13T02:16:35.836Z,0.00
2023-05-13T02:17:35.764Z,0.00
2023-05-13T02:18:35.768Z,0.00
2023-05-13T02:19:35.744Z,0.00
2023-05-13T02:20:35.715Z,0.00
2023-05-13T02:21:35.735Z,0.00
2023-05-13T02:22:35.689Z,0.00
2023-05-13T02:23:35.715Z,0.00
2023-05-13T02:24:35.693Z,0.00
2023-05-13T02:25:35.689Z,0.00
2023-05-13T02:26:35.648Z,0.00
2023-05-13T02:27:35.682Z,0.00
2023-05-13T02:28:35.621Z,0.00
2023-05-13T02:29:35.624Z,0.00
2023-05-13T02:30:35.617Z,0.00
2023-05-13T02:31:35.631Z,0.00
2023-05-13T02:32:35.612Z,0.00
2023-05-13T02:33:35.593Z,0.00
2023-05-13T02:34:35.612Z,0.00
2023-05-13T02:35:35.555Z,0.00
2023-05-13T02:36:35.536Z,0.00
2023-05-13T02:37:35.534Z,0.00
2023-05-13T02:38:35.530Z,0.00
2023-05-13T02:39:35.726Z,0.00
2023-05-13T02:40:35.539Z,0.00
2023-05-13T02:41:35.487Z,0.00
2023-05-13T02:42:35.479Z,0.00
2023-05-13T02:43:35.508Z,0.00
2023-05-13T02:44:35.495Z,0.00
2023-05-13T02:45:35.633Z,0.00
2023-05-13T02:46:35.505Z,0.00
2023-05-13T02:47:35.479Z,0.00
2023-05-13T02:48:35.415Z,0.00
2023-05-13T02:49:35.433Z,0.00
2023-05-13T02:50:35.406Z,0.00
2023-05-13T02:51:35.378Z,0.00
2023-05-13T02:52:35.380Z,0.00
2023-05-13T02:53:35.358Z,0.00
2023-05-13T02:54:35.350Z,0.00
2023-05-13T02:55:35.393Z,0.00
2023-05-13T02:56:35.343Z,0.00
2023-05-13T02:57:35.316Z,4.00
2023-05-13T02:58:35.303Z,4.00
2023-05-13T02:59:35.337Z,0.00
2023-05-13T03:00:35.302Z,0.00
2023-05-13T03:01:35.308Z,4.00
2023-05-13T03:02:35.361Z,0.00
2023-05-13T03:03:35.403Z,0.00
2023-05-13T03:04:35.249Z,4.00
2023-05-13T03:05:35.257Z,4.00
2023-05-13T03:06:35.216Z,4.00
2023-05-13T03:07:35.264Z,4.00
2023-05-13T03:08:35.236Z,4.00
2023-05-13T03:09:35.190Z,4.00
2023-05-13T03:10:35.169Z,8.00
2023-05-13T03:11:35.187Z,4.00
2023-05-13T03:12:35.172Z,8.00
2023-05-13T03:13:35.205Z,8.00
2023-05-13T03:14:35.152Z,4.00
2023-05-13T03:15:35.119Z,8.00
2023-05-13T03:16:35.126Z,8.00
2023-05-13T03:17:35.127Z,12.00
2023-05-13T03:18:35.160Z,12.00
2023-05-13T03:19:35.087Z,12.00
2023-05-13T03:20:35.106Z,16.00
2023-05-13T03:21:35.049Z,16.00
2023-05-13T03:22:35.034Z,16.00
2023-05-13T03:23:35.030Z,16.00
2023-05-13T03:24:35.044Z,20.00
2023-05-13T03:25:35.029Z,20.00
2023-05-13T03:26:35.054Z,20.00
2023-05-13T03:27:35.002Z,24.00
2023-05-13T03:28:34.985Z,24.00
2023-05-13T03:29:34.954Z,28.00
2023-05-13T03:30:34.950Z,28.00
2023-05-13T03:31:35.005Z,32.00
2023-05-13T03:32:34.988Z,32.00
2023-05-13T03:33:34.917Z,32.00
2023-05-13T03:34:34.914Z,40.00
2023-05-13T03:35:34.901Z,40.00
2023-05-13T03:36:34.906Z,44.00
2023-05-13T03:37:34.883Z,44.00
2023-05-13T03:38:34.891Z,48.00
2023-05-13T03:39:34.864Z,48.00
2023-05-13T03:40:34.836Z,52.00
2023-05-13T03:41:34.826Z,56.00
2023-05-13T03:42:34.829Z,56.00
2023-05-13T03:43:34.855Z,60.00
2023-05-13T03:44:34.791Z,64.00
2023-05-13T03:45:34.799Z,68.00
2023-05-13T03:46:34.838Z,72.00
2023-05-13T03:47:34.783Z,72.00
2023-05-13T03:48:34.797Z,76.00
2023-05-13T03:49:34.766Z,80.00
2023-05-13T03:50:34.722Z,84.00
2023-05-13T03:51:34.729Z,88.00
2023-05-13T03:52:34.720Z,88.00
2023-05-13T03:53:34.716Z,96.00
2023-05-13T03:54:34.699Z,100.00
2023-05-13T03:55:34.673Z,100.00
2023-05-13T03:56:34.719Z,108.00
2023-05-13T03:57:34.660Z,112.00
2023-05-13T03:58:34.654Z,116.00
2023-05-13T03:59:34.659Z,120.00
2023-05-13T04:00:34.653Z,120.00
2023-05-13T04:01:34.643Z,128.00
2023-05-13T04:02:34.751Z,128.00
2023-05-13T04:03:34.602Z,132.00
2023-05-13T04:04:34.577Z,132.00
2023-05-13T04:05:34.575Z,136.00
2023-05-13T04:06:34.581Z,136.00
2023-05-13T04:07:34.535Z,140.00
2023-05-13T04:08:34.558Z,144.00
2023-05-13T04:09:34.531Z,152.00
2023-05-13T04:10:34.573Z,160.00
2023-05-13T04:11:34.517Z,168.00
2023-05-13T04:12:34.484Z,184.00
2023-05-13T04:13:34.471Z,192.00
2023-05-13T04:14:34.474Z,204.00
2023-05-13T04:15:34.584Z,220.00
2023-05-13T04:16:34.471Z,228.00
2023-05-13T04:17:34.466Z,236.00
2023-05-13T04:18:34.461Z,240.00
2023-05-13T04:19:34.419Z,220.00
2023-05-13T04:20:34.433Z,216.00
2023-05-13T04:21:34.428Z,208.00
2023-05-13T04:22:34.387Z,204.00
2023-05-13T04:23:34.378Z,204.00
2023-05-13T04:24:34.367Z,200.00
2023-05-13T04:25:34.363Z,204.00
2023-05-13T04:26:34.379Z,204.00
2023-05-13T04:27:34.322Z,208.00
2023-05-13T04:28:34.320Z,204.00
2023-05-13T04:29:34.295Z,208.00
2023-05-13T04:30:34.282Z,212.00
2023-05-13T04:31:34.372Z,216.00
2023-05-13T04:32:34.309Z,216.00
2023-05-13T04:33:34.281Z,224.00
2023-05-13T04:34:34.243Z,228.00
2023-05-13T04:35:34.260Z,236.00
2023-05-13T04:36:34.214Z,244.00
2023-05-13T04:37:34.231Z,248.00
2023-05-13T04:38:34.228Z,248.00
2023-05-13T04:39:34.187Z,256.00
2023-05-13T04:40:34.197Z,264.00
2023-05-13T04:41:34.167Z,268.00
2023-05-13T04:42:34.204Z,276.00
2023-05-13T04:43:34.155Z,288.00
2023-05-13T04:44:34.166Z,296.00
2023-05-13T04:45:34.132Z,308.00
2023-05-13T04:46:34.176Z,316.00
2023-05-13T04:47:34.137Z,332.00
2023-05-13T04:48:34.120Z,344.00
2023-05-13T04:49:34.150Z,352.00
2023-05-13T04:50:34.063Z,360.00
2023-05-13T04:51:34.070Z,364.00
2023-05-13T04:52:34.045Z,364.00
2023-05-13T04:53:34.029Z,356.00
2023-05-13T04:54:34.021Z,348.00
2023-05-13T04:55:34.039Z,296.00
2023-05-13T04:56:34.003Z,284.00
2023-05-13T04:57:33.999Z,328.00
2023-05-13T04:58:34.014Z,340.00
2023-05-13T04:59:33.966Z,344.00
2023-05-13T05:00:33.974Z,352.00
2023-05-13T05:01:34.023Z,352.00
2023-05-13T05:02:33.972Z,356.00
2023-05-13T05:03:33.965Z,356.00
2023-05-13T05:04:33.939Z,360.00
2023-05-13T05:05:33.951Z,364.00
2023-05-13T05:06:33.904Z,368.00
2023-05-13T05:07:33.893Z,368.00
2023-05-13T05:08:33.873Z,304.00
2023-05-13T05:09:33.889Z,360.00
2023-05-13T05:10:33.844Z,388.00
2023-05-13T05:11:34.564Z,400.00
2023-05-13T05:12:33.908Z,396.00
2023-05-13T05:13:33.857Z,404.00
2023-05-13T05:14:33.824Z,420.00
2023-05-13T05:15:33.810Z,392.00
2023-05-13T05:16:33.784Z,428.00
2023-05-13T05:17:33.893Z,440.00
2023-05-13T05:18:33.848Z,448.00
2023-05-13T05:19:33.862Z,420.00
2023-05-13T05:20:33.746Z,400.00
2023-05-13T05:21:33.798Z,424.00
2023-05-13T05:22:33.748Z,436.00
2023-05-13T05:23:33.705Z,452.00
2023-05-13T05:24:33.694Z,468.00
2023-05-13T05:25:33.699Z,476.00
2023-05-13T05:26:33.673Z,492.00
2023-05-13T05:27:33.675Z,504.00
2023-05-13T05:28:33.687Z,512.00
2023-05-13T05:29:33.633Z,500.00
2023-05-13T05:30:33.636Z,496.00
2023-05-13T05:31:33.670Z,492.00
2023-05-13T05:32:33.626Z,488.00
2023-05-13T05:33:33.628Z,484.00
2023-05-13T05:34:33.596Z,484.00
2023-05-13T05:35:33.737Z,480.00
2023-05-13T05:36:34.294Z,472.00
2023-05-13T05:37:33.552Z,464.00
2023-05-13T05:38:33.553Z,456.00
2023-05-13T05:39:33.555Z,472.00
2023-05-13T05:40:33.517Z,472.00
2023-05-13T05:41:33.503Z,464.00
2023-05-13T05:42:33.495Z,476.00
2023-05-13T05:43:33.520Z,484.00
2023-05-13T05:44:33.479Z,488.00
2023-05-13T05:45:33.493Z,492.00
2023-05-13T05:46:33.466Z,496.00
2023-05-13T05:47:33.516Z,500.00
2023-05-13T05:48:34.753Z,500.00
2023-05-13T05:49:33.428Z,500.00
2023-05-13T05:50:33.423Z,504.00
2023-05-13T05:51:33.554Z,504.00
2023-05-13T05:52:33.380Z,508.00
2023-05-13T05:53:33.375Z,508.00
2023-05-13T05:54:33.358Z,508.00
2023-05-13T05:55:33.365Z,512.00
2023-05-13T05:56:33.360Z,520.00
2023-05-13T05:57:33.335Z,520.00
2023-05-13T05:58:33.338Z,524.00
2023-05-13T05:59:33.309Z,524.00
2023-05-13T06:00:33.400Z,520.00
2023-05-13T06:01:33.310Z,524.00
2023-05-13T06:02:33.414Z,524.00
2023-05-13T06:03:33.402Z,528.00
2023-05-13T06:04:33.298Z,540.00
2023-05-13T06:05:33.263Z,540.00
2023-05-13T06:06:33.301Z,540.00
2023-05-13T06:07:33.254Z,540.00
2023-05-13T06:08:33.226Z,544.00
2023-05-13T06:09:33.213Z,544.00
2023-05-13T06:10:33.205Z,548.00
2023-05-13T06:11:33.205Z,548.00
2023-05-13T06:12:33.182Z,548.00
2023-05-13T06:13:33.164Z,552.00
2023-05-13T06:14:33.153Z,552.00
2023-05-13T06:15:33.159Z,560.00
2023-05-13T06:16:33.227Z,556.00
2023-05-13T06:17:33.140Z,564.00
2023-05-13T06:18:33.142Z,564.00
2023-05-13T06:19:33.109Z,568.00
2023-05-13T06:20:33.112Z,568.00
2023-05-13T06:21:33.083Z,568.00
2023-05-13T06:22:33.065Z,568.00
2023-05-13T06:23:33.063Z,568.00
2023-05-13T06:24:33.047Z,572.00
2023-05-13T06:25:33.035Z,572.00
2023-05-13T06:26:33.055Z,572.00
2023-05-13T06:27:33.018Z,572.00
2023-05-13T06:28:33.005Z,576.00
2023-05-13T06:29:32.987Z,572.00
2023-05-13T06:30:32.993Z,572.00
2023-05-13T06:31:33.007Z,572.00
2023-05-13T06:32:33.046Z,572.00
2023-05-13T06:33:33.042Z,572.00
2023-05-13T06:34:32.959Z,576.00
2023-05-13T06:35:32.952Z,576.00
2023-05-13T06:36:32.911Z,576.00
2023-05-13T06:37:32.921Z,580.00
2023-05-13T06:38:32.882Z,580.00
2023-05-13T06:39:32.916Z,584.00
2023-05-13T06:40:32.872Z,584.00
2023-05-13T06:41:32.856Z,584.00
2023-05-13T06:42:32.854Z,588.00
2023-05-13T06:43:32.834Z,588.00
2023-05-13T06:44:32.829Z,588.00
2023-05-13T06:45:32.835Z,592.00
2023-05-13T06:46:32.830Z,596.00
2023-05-13T06:47:32.807Z,596.00
2023-05-13T06:48:32.783Z,600.00
2023-05-13T06:49:32.791Z,600.00
2023-05-13T06:50:32.765Z,600.00
2023-05-13T06:51:32.747Z,600.00
2023-05-13T06:52:32.749Z,596.00
2023-05-13T06:53:32.739Z,600.00
2023-05-13T06:54:32.720Z,604.00
2023-05-13T06:55:32.730Z,600.00
2023-05-13T06:56:32.708Z,604.00
2023-05-13T06:57:41.850Z,608.00
2023-05-13T06:58:33.687Z,604.00
2023-05-13T06:59:32.672Z,608.00
2023-05-13T07:00:32.643Z,604.00
2023-05-13T07:01:32.697Z,604.00
2023-05-13T07:02:32.683Z,604.00
2023-05-13T07:03:32.640Z,604.00
2023-05-13T07:04:32.600Z,604.00
2023-05-13T07:05:32.596Z,604.00
2023-05-13T07:06:32.574Z,604.00
2023-05-13T07:07:32.564Z,604.00
2023-05-13T07:08:32.577Z,600.00
2023-05-13T07:09:32.561Z,604.00
2023-05-13T07:10:32.542Z,600.00
2023-05-13T07:11:32.559Z,604.00
2023-05-13T07:12:32.516Z,600.00
2023-05-13T07:13:32.502Z,604.00
2023-05-13T07:14:32.498Z,600.00
2023-05-13T07:15:32.486Z,600.00
2023-05-13T07:16:32.500Z,600.00
2023-05-13T07:17:32.656Z,600.00
2023-05-13T07:18:32.596Z,596.00
2023-05-13T07:19:32.427Z,596.00
2023-05-13T07:20:32.450Z,600.00
2023-05-13T07:21:32.408Z,596.00
2023-05-13T07:22:32.406Z,600.00
2023-05-13T07:23:32.409Z,600.00
2023-05-13T07:24:32.372Z,600.00
2023-05-13T07:25:32.380Z,600.00
2023-05-13T07:26:32.370Z,600.00
2023-05-13T07:27:32.356Z,604.00
2023-05-13T07:28:32.345Z,600.00
2023-05-13T07:29:32.358Z,604.00
2023-05-13T07:30:32.406Z,604.00
2023-05-13T07:31:32.307Z,604.00
2023-05-13T07:32:32.321Z,604.00
2023-05-13T07:33:32.276Z,608.00
2023-05-13T07:34:32.267Z,608.00
2023-05-13T07:35:32.252Z,604.00
2023-05-13T07:36:32.285Z,600.00
2023-05-13T07:37:32.234Z,596.00
2023-05-13T07:38:32.233Z,600.00
2023-05-13T07:39:32.218Z,600.00
2023-05-13T07:40:32.223Z,596.00
2023-05-13T07:41:32.217Z,600.00
2023-05-13T07:42:32.200Z,596.00
2023-05-13T07:43:32.183Z,600.00
2023-05-13T07:44:32.154Z,604.00
2023-05-13T07:45:32.167Z,600.00
2023-05-13T07:46:32.180Z,604.00
2023-05-13T07:47:32.172Z,604.00
2023-05-13T07:48:32.108Z,604.00
2023-05-13T07:49:32.105Z,604.00
2023-05-13T07:50:32.125Z,604.00
2023-05-13T07:51:32.080Z,600.00
2023-05-13T07:52:32.068Z,600.00
2023-05-13T07:53:32.060Z,604.00
2023-05-13T07:54:32.056Z,604.00
2023-05-13T07:55:32.057Z,600.00
2023-05-13T07:56:32.032Z,596.00
2023-05-13T07:57:32.027Z,596.00
2023-05-13T07:58:32.017Z,592.00
2023-05-13T07:59:32.030Z,588.00
2023-05-13T08:00:31.987Z,588.00
2023-05-13T08:01:31.996Z,588.00
2023-05-13T08:02:32.017Z,584.00
2023-05-13T08:03:32.133Z,580.00
2023-05-13T08:04:32.002Z,580.00
2023-05-13T08:05:31.930Z,584.00
2023-05-13T08:06:32.837Z,580.00
2023-05-13T08:07:31.991Z,580.00
2023-05-13T08:08:31.906Z,580.00
2023-05-13T08:09:31.878Z,576.00
2023-05-13T08:10:31.867Z,580.00
2023-05-13T08:11:31.862Z,584.00
2023-05-13T08:12:31.856Z,588.00
2023-05-13T08:13:31.872Z,580.00
2023-05-13T08:14:31.836Z,580.00
2023-05-13T08:15:31.859Z,580.00
2023-05-13T08:16:31.961Z,584.00
2023-05-13T08:17:31.795Z,584.00
2023-05-13T08:18:31.837Z,584.00
2023-05-13T08:19:31.770Z,580.00
2023-05-13T08:20:31.766Z,580.00
2023-05-13T08:21:31.776Z,580.00
2023-05-13T08:22:31.734Z,584.00
2023-05-13T08:23:44.280Z,588.00
2023-05-13T08:24:32.726Z,588.00
2023-05-13T08:25:31.712Z,592.00
2023-05-13T08:26:31.709Z,600.00
2023-05-13T08:27:31.711Z,596.00
2023-05-13T08:28:31.671Z,600.00
2023-05-13T08:29:31.653Z,600.00
2023-05-13T08:30:31.669Z,600.00
2023-05-13T08:31:31.714Z,604.00
2023-05-13T08:32:31.670Z,604.00
2023-05-13T08:33:31.667Z,612.00
2023-05-13T08:34:31.621Z,608.00
2023-05-13T08:35:31.597Z,608.00
2023-05-13T08:36:31.612Z,616.00
2023-05-13T08:37:31.591Z,612.00
2023-05-13T08:38:31.586Z,612.00
2023-05-13T08:39:31.551Z,620.00
2023-05-13T08:40:31.535Z,620.00
2023-05-13T08:41:31.550Z,620.00
2023-05-13T08:42:31.548Z,628.00
2023-05-13T08:43:31.526Z,628.00
2023-05-13T08:44:31.495Z,628.00
2023-05-13T08:45:31.489Z,628.00
2023-05-13T08:46:31.673Z,628.00
2023-05-13T08:47:31.599Z,632.00
2023-05-13T08:48:31.469Z,636.00
2023-05-13T08:49:31.461Z,636.00
2023-05-13T08:50:31.436Z,632.00
2023-05-13T08:51:31.417Z,640.00
2023-05-13T08:52:31.416Z,616.00
2023-05-13T08:53:31.446Z,636.00
2023-05-13T08:54:31.400Z,640.00
2023-05-13T08:55:31.392Z,644.00
2023-05-13T08:56:31.397Z,644.00
2023-05-13T08:57:31.356Z,644.00
2023-05-13T08:58:31.478Z,640.00
2023-05-13T08:59:31.345Z,648.00
2023-05-13T09:00:31.336Z,652.00
2023-05-13T09:01:31.502Z,656.00
2023-05-13T09:02:31.323Z,656.00
2023-05-13T09:03:31.314Z,652.00
2023-05-13T09:04:31.508Z,660.00
2023-05-13T09:05:31.302Z,316.00
2023-05-13T09:06:31.297Z,648.00
2023-05-13T09:07:31.271Z,692.00
2023-05-13T09:08:31.233Z,296.00
2023-05-13T09:09:31.222Z,508.00
2023-05-13T09:10:31.259Z,684.00
2023-05-13T09:11:31.209Z,676.00
2023-05-13T09:12:31.210Z,684.00
2023-05-13T09:13:31.178Z,448.00
2023-05-13T09:14:31.188Z,648.00
2023-05-13T09:15:31.157Z,684.00
2023-05-13T09:16:31.177Z,680.00
2023-05-13T09:17:31.221Z,300.00
2023-05-13T09:18:31.263Z,268.00
2023-05-13T09:19:31.291Z,292.00
2023-05-13T09:20:31.104Z,292.00
2023-05-13T09:21:31.118Z,700.00
2023-05-13T09:22:31.089Z,704.00
2023-05-13T09:23:31.081Z,696.00
2023-05-13T09:24:31.063Z,560.00
2023-05-13T09:25:31.057Z,704.00
2023-05-13T09:26:31.032Z,704.00
2023-05-13T09:27:31.044Z,708.00
2023-05-13T09:28:31.026Z,716.00
2023-05-13T09:29:31.050Z,732.00
2023-05-13T09:30:31.046Z,740.00
2023-05-13T09:31:31.027Z,384.00
2023-05-13T09:32:31.011Z,704.00
2023-05-13T09:33:31.478Z,652.00
2023-05-13T09:34:30.952Z,704.00
2023-05-13T09:35:30.986Z,336.00
2023-05-13T09:36:30.939Z,408.00
2023-05-13T09:37:30.915Z,372.00
2023-05-13T09:38:30.918Z,340.00
2023-05-13T09:39:32.292Z,748.00
2023-05-13T09:40:30.894Z,760.00
2023-05-13T09:41:30.892Z,760.00
2023-05-13T09:42:30.856Z,768.00
2023-05-13T09:43:30.846Z,780.00
2023-05-13T09:44:30.834Z,772.00
2023-05-13T09:45:30.848Z,788.00
2023-05-13T09:46:30.852Z,780.00
2023-05-13T09:47:31.447Z,820.00
2023-05-13T09:48:30.796Z,828.00
2023-05-13T09:49:30.779Z,824.00
2023-05-13T09:50:30.794Z,816.00
2023-05-13T09:51:30.789Z,824.00
2023-05-13T09:52:30.760Z,836.00
2023-05-13T09:53:30.746Z,488.00
2023-05-13T09:54:33.052Z,736.00
2023-05-13T09:55:30.732Z,884.00
2023-05-13T09:56:30.703Z,884.00
2023-05-13T09:57:30.709Z,416.00
2023-05-13T09:58:30.827Z,416.00
2023-05-13T09:59:30.751Z,404.00
2023-05-13T10:00:32.926Z,388.00
2023-05-13T10:01:30.680Z,392.00
2023-05-13T10:02:30.667Z,564.00
2023-05-13T10:03:30.674Z,828.00
2023-05-13T10:04:30.629Z,832.00
2023-05-13T10:05:30.620Z,816.00
2023-05-13T10:06:30.642Z,768.00
2023-05-13T10:07:30.604Z,784.00
2023-05-13T10:08:30.585Z,780.00
2023-05-13T10:09:38.238Z,788.00
2023-05-13T10:10:30.560Z,788.00
2023-05-13T10:11:30.562Z,336.00
2023-05-13T10:12:30.587Z,320.00
2023-05-13T10:13:30.522Z,304.00
2023-05-13T10:14:30.515Z,300.00
2023-05-13T10:15:30.498Z,308.00
2023-05-13T10:16:30.528Z,688.00
2023-05-13T10:17:30.540Z,284.00
2023-05-13T10:18:30.525Z,292.00
2023-05-13T10:19:30.458Z,312.00
2023-05-13T10:20:30.454Z,320.00
2023-05-13T10:21:30.435Z,344.00
2023-05-13T10:22:30.428Z,836.00
2023-05-13T10:23:30.429Z,836.00
2023-05-13T10:24:30.430Z,836.00
2023-05-13T10:25:30.401Z,832.00
2023-05-13T10:26:30.391Z,840.00
2023-05-13T10:27:30.375Z,816.00
2023-05-13T10:28:30.366Z,856.00
2023-05-13T10:29:30.385Z,856.00
2023-05-13T10:30:30.342Z,840.00
2023-05-13T10:31:30.369Z,764.00
2023-05-13T10:32:30.385Z,784.00
2023-05-13T10:33:30.314Z,748.00
2023-05-13T10:34:30.300Z,816.00
2023-05-13T10:35:30.305Z,388.00
2023-05-13T10:36:30.273Z,804.00
2023-05-13T10:37:30.267Z,660.00
2023-05-13T10:38:30.253Z,696.00
2023-05-13T10:39:30.264Z,804.00
2023-05-13T10:40:30.252Z,796.00
2023-05-13T10:41:30.212Z,788.00
2023-05-13T10:42:30.210Z,796.00
2023-05-13T10:43:30.213Z,800.00
2023-05-13T10:44:30.173Z,800.00
2023-05-13T10:45:30.170Z,336.00
2023-05-13T10:46:30.262Z,464.00
2023-05-13T10:47:30.186Z,804.00
2023-05-13T10:48:30.224Z,800.00
2023-05-13T10:49:30.158Z,796.00
2023-05-13T10:50:30.122Z,796.00
2023-05-13T10:51:30.127Z,796.00
2023-05-13T10:52:30.111Z,800.00
2023-05-13T10:53:30.077Z,800.00
2023-05-13T10:54:30.083Z,812.00
2023-05-13T10:55:30.089Z,808.00
2023-05-13T10:56:30.046Z,804.00
2023-05-13T10:57:30.056Z,804.00
2023-05-13T10:58:30.045Z,304.00
2023-05-13T10:59:30.024Z,316.00
2023-05-13T11:00:30.063Z,312.00
2023-05-13T11:01:30.111Z,800.00
2023-05-13T11:02:30.058Z,804.00
2023-05-13T11:03:30.113Z,800.00
2023-05-13T11:04:29.955Z,792.00
2023-05-13T11:05:29.951Z,800.00
2023-05-13T11:06:29.968Z,812.00
2023-05-13T11:07:29.959Z,812.00
2023-05-13T11:08:29.926Z,816.00
2023-05-13T11:09:29.931Z,824.00
2023-05-13T11:10:29.902Z,844.00
2023-05-13T11:11:29.937Z,840.00
2023-05-13T11:12:29.874Z,836.00
2023-05-13T11:13:29.860Z,836.00
2023-05-13T11:14:29.873Z,824.00
2023-05-13T11:15:29.839Z,388.00
2023-05-13T11:16:29.868Z,360.00
2023-05-13T11:17:29.861Z,372.00
2023-05-13T11:18:29.830Z,828.00
2023-05-13T11:19:29.875Z,424.00
2023-05-13T11:20:30.488Z,444.00
2023-05-13T11:21:29.780Z,872.00
2023-05-13T11:22:29.791Z,872.00
2023-05-13T11:23:29.758Z,432.00
2023-05-13T11:24:29.763Z,488.00
2023-05-13T11:25:29.732Z,440.00
2023-05-13T11:26:29.730Z,896.00
2023-05-13T11:27:29.734Z,880.00
2023-05-13T11:28:29.704Z,512.00
2023-05-13T11:29:29.830Z,392.00
2023-05-13T11:30:29.693Z,416.00
2023-05-13T11:31:29.724Z,436.00
2023-05-13T11:32:29.678Z,440.00
2023-05-13T11:33:29.645Z,440.00
2023-05-13T11:34:29.898Z,440.00
2023-05-13T11:35:29.654Z,532.00
2023-05-13T11:36:29.622Z,476.00
2023-05-13T11:37:29.608Z,472.00
2023-05-13T11:38:29.606Z,504.00
2023-05-13T11:39:29.586Z,524.00
2023-05-13T11:40:29.594Z,564.00
2023-05-13T11:41:29.586Z,512.00
2023-05-13T11:42:29.587Z,496.00
2023-05-13T11:43:29.569Z,492.00
2023-05-13T11:44:29.603Z,508.00
2023-05-13T11:45:29.674Z,516.00
2023-05-13T11:46:29.541Z,520.00
2023-05-13T11:47:29.587Z,484.00
2023-05-13T11:48:29.508Z,944.00
2023-05-13T11:49:29.506Z,932.00
2023-05-13T11:50:29.492Z,680.00
2023-05-13T11:51:29.458Z,584.00
2023-05-13T11:52:29.450Z,936.00
2023-05-13T11:53:29.431Z,752.00
2023-05-13T11:54:29.414Z,492.00
2023-05-13T11:55:29.427Z,472.00
2023-05-13T11:56:29.390Z,556.00
2023-05-13T11:57:29.385Z,388.00
2023-05-13T11:58:29.386Z,344.00
2023-05-13T11:59:38.576Z,340.00
2023-05-13T12:00:30.370Z,340.00
2023-05-13T12:01:29.361Z,364.00
2023-05-13T12:02:29.480Z,412.00
2023-05-13T12:03:29.390Z,412.00
2023-05-13T12:04:29.313Z,504.00
2023-05-13T12:05:29.364Z,480.00
2023-05-13T12:06:29.293Z,492.00
2023-05-13T12:07:29.291Z,508.00
2023-05-13T12:08:29.304Z,904.00
2023-05-13T12:09:29.255Z,528.00
2023-05-13T12:10:29.244Z,504.00
2023-05-13T12:11:29.263Z,516.00
2023-05-13T12:12:29.232Z,532.00
2023-05-13T12:13:29.222Z,712.00
2023-05-13T12:14:29.197Z,808.00
2023-05-13T12:15:29.223Z,580.00
2023-05-13T12:16:29.330Z,880.00
2023-05-13T12:17:29.239Z,940.00
2023-05-13T12:18:29.225Z,956.00
2023-05-13T12:19:29.164Z,672.00
2023-05-13T12:20:29.136Z,828.00
2023-05-13T12:21:29.120Z,712.00
2023-05-13T12:22:29.128Z,672.00
2023-05-13T12:23:29.125Z,656.00
2023-05-13T12:24:29.114Z,624.00
2023-05-13T12:25:29.100Z,624.00
2023-05-13T12:26:29.106Z,580.00
2023-05-13T12:27:29.058Z,548.00
2023-05-13T12:28:29.060Z,568.00
2023-05-13T12:29:29.038Z,596.00
2023-05-13T12:30:29.042Z,600.00
2023-05-13T12:31:29.093Z,624.00
2023-05-13T12:32:29.105Z,740.00
2023-05-13T12:33:28.991Z,688.00
2023-05-13T12:34:28.990Z,672.00
2023-05-13T12:35:28.970Z,816.00
2023-05-13T12:36:29.026Z,1044.00
2023-05-13T12:37:28.952Z,1032.00
2023-05-13T12:38:28.953Z,1024.00
2023-05-13T12:39:28.954Z,1032.00
2023-05-13T12:40:28.975Z,696.00
2023-05-13T12:41:28.929Z,1060.00